Time;durP1;ratioP1;P1;durP2;ratioP2;P2;SDS_P1;SDS_P2;PMS_P1;PMS_P2;Temp;Humidity;BMP_temperature;BMP_pressure;BME280_temperature;BME280_humidity;BME280_pressure;Samples;Min_cycle;Max_cycle;Signal;HPM_P1;HPM_P2
2021/03/21 00:00:32;;;;;;;14.95;7.90;;;;;;;-0.34;49.00;100848.09;5097788;28;20035;-75
2021/03/21 00:02:59;;;;;;;18.55;8.10;;;;;;;-0.41;49.18;100869.97;5115110;28;20134;-74
2021/03/21 00:05:25;;;;;;;11.25;6.07;;;;;;;-0.50;49.31;100865.66;5097333;28;20023;-75
2021/03/21 00:07:59;;;;;;;12.25;6.47;;;;;;;-0.60;49.78;100851.72;5115635;28;20039;-74
2021/03/21 00:10:26;;;;;;;15.30;8.43;;;;;;;-0.53;50.03;100851.72;5114962;28;20035;-74
2021/03/21 00:12:52;;;;;;;16.00;8.55;;;;;;;-0.50;49.43;100859.53;5097585;28;20062;-74
2021/03/21 00:15:18;;;;;;;15.98;8.10;;;;;;;-0.60;49.13;100828.16;5096953;28;20551;-75
2021/03/21 00:17:44;;;;;;;14.27;7.43;;;;;;;-0.40;49.53;100856.00;5115219;28;20071;-75
2021/03/21 00:20:12;;;;;;;10.02;5.50;;;;;;;-0.49;49.66;100856.03;5114938;28;20059;-74
2021/03/21 00:22:38;;;;;;;15.68;8.85;;;;;;;-0.88;49.65;100789.88;5115417;28;20062;-75
2021/03/21 00:25:08;;;;;;;15.88;7.90;;;;;;;-0.63;49.68;100833.41;5115130;28;20063;-80
2021/03/21 00:27:33;;;;;;;13.73;7.72;;;;;;;-0.41;49.38;100856.88;5115342;28;20034;-75
2021/03/21 00:29:59;;;;;;;15.73;8.38;;;;;;;-0.38;49.45;100860.38;5115147;28;20035;-74
2021/03/21 00:32:24;;;;;;;14.98;8.02;;;;;;;-0.35;49.38;100864.72;5114786;28;20036;-74
2021/03/21 00:34:50;;;;;;;12.77;7.70;;;;;;;-0.52;49.17;100825.50;5114992;28;20045;-74
2021/03/21 00:37:15;;;;;;;16.92;8.07;;;;;;;-0.54;48.67;100832.50;5096674;28;20147;-74
2021/03/21 00:39:41;;;;;;;12.45;7.60;;;;;;;-0.49;48.86;100848.19;5115012;28;20069;-74
2021/03/21 00:42:07;;;;;;;15.98;8.15;;;;;;;-0.45;48.69;100865.66;5114648;28;20032;-74
2021/03/21 00:44:32;;;;;;;15.43;8.10;;;;;;;-0.51;49.40;100857.81;5115386;28;20067;-75
2021/03/21 00:46:58;;;;;;;14.80;7.78;;;;;;;-0.49;49.52;100854.28;5096541;28;20038;-76
2021/03/21 00:49:23;;;;;;;16.98;8.90;;;;;;;-0.84;49.45;100807.34;5114371;28;20420;-74
2021/03/21 00:51:49;;;;;;;14.68;8.05;;;;;;;-0.80;49.59;100822.13;5114870;28;20039;-74
2021/03/21 00:54:14;;;;;;;15.13;7.90;;;;;;;-0.77;49.49;100814.28;5096353;28;20061;-75
2021/03/21 00:56:41;;;;;;;17.25;7.95;;;;;;;-0.63;49.17;100836.03;5114696;28;20394;-74
2021/03/21 00:59:07;;;;;;;13.73;7.50;;;;;;;-0.50;48.21;100835.97;5114456;28;20046;-78
2021/03/21 01:01:33;;;;;;;15.50;8.05;;;;;;;-0.69;49.12;100817.72;5114415;28;20034;-75
2021/03/21 01:03:59;;;;;;;12.10;7.40;;;;;;;-0.46;48.04;100829.84;5114254;28;20050;-74
2021/03/21 01:06:25;;;;;;;16.35;7.95;;;;;;;-0.51;48.51;100826.34;5114375;28;20035;-74
2021/03/21 01:08:56;;;;;;;12.95;6.50;;;;;;;-0.53;48.11;100817.63;5114679;28;20036;-74
2021/03/21 01:11:29;;;;;;;12.38;7.05;;;;;;;-0.53;48.35;100822.88;5095802;28;20031;-75
2021/03/21 01:13:54;;;;;;;14.98;7.25;;;;;;;-0.80;48.68;100819.53;5114538;28;20035;-74
2021/03/21 01:16:30;;;;;;;11.95;6.07;;;;;;;-0.99;48.89;100783.81;5095450;28;20066;-74
2021/03/21 01:18:56;;;;;;;11.63;6.40;;;;;;;-0.92;48.42;100809.13;5096144;28;20081;-74
2021/03/21 01:21:24;;;;;;;11.65;7.00;;;;;;;-1.12;49.07;100790.88;5113427;28;20047;-75
2021/03/21 01:23:50;;;;;;;12.32;7.30;;;;;;;-1.22;48.71;100784.81;5114010;28;20031;-75
2021/03/21 01:26:23;;;;;;;7.90;4.97;;;;;;;-1.21;49.09;100781.31;5113955;28;20114;-75
2021/03/21 01:28:49;;;;;;;11.70;6.20;;;;;;;-1.04;48.14;100810.03;5113982;28;20028;-74
2021/03/21 01:31:18;;;;;;;14.25;7.20;;;;;;;-1.13;48.78;100815.31;5113857;28;20497;-74
2021/03/21 01:33:44;;;;;;;13.75;7.00;;;;;;;-1.34;49.07;100778.75;5113963;28;20036;-74
2021/03/21 01:36:15;;;;;;;13.40;6.60;;;;;;;-1.15;48.91;100801.38;5113760;28;20089;-75
2021/03/21 01:38:40;;;;;;;13.77;7.13;;;;;;;-1.25;49.33;100794.41;5114051;28;20027;-75
2021/03/21 01:41:12;;;;;;;15.18;7.05;;;;;;;-1.40;49.22;100773.53;5114104;28;20039;-75
2021/03/21 01:43:41;;;;;;;12.25;6.47;;;;;;;-1.27;49.55;100802.25;5113884;28;20428;-74
2021/03/21 01:46:07;;;;;;;13.82;6.63;;;;;;;-1.84;50.74;100730.03;5113993;28;20064;-74
2021/03/21 01:48:34;;;;;;;12.40;7.60;;;;;;;-1.70;50.07;100780.56;5113466;28;20138;-75
2021/03/21 01:50:59;;;;;;;12.85;7.00;;;;;;;-1.52;50.30;100805.84;5113690;28;20068;-74
2021/03/21 01:53:30;;;;;;;14.50;7.25;;;;;;;-1.77;50.18;100774.47;5113466;28;20073;-75
2021/03/21 01:55:56;;;;;;;11.95;7.47;;;;;;;-1.80;51.38;100787.56;5113653;28;20031;-74
2021/03/21 01:58:24;;;;;;;13.73;7.00;;;;;;;-1.67;51.15;100800.63;5113826;28;20052;-75
2021/03/21 02:00:55;;;;;;;12.95;7.10;;;;;;;-1.80;51.08;100781.47;5095920;28;20031;-75
2021/03/21 02:03:21;;;;;;;14.45;7.22;;;;;;;-1.66;50.37;100791.88;5113320;28;20052;-75
2021/03/21 02:05:50;;;;;;;12.63;6.90;;;;;;;-1.86;50.67;100769.25;5113504;28;20023;-74
2021/03/21 02:08:39;;;;;;;12.43;7.07;;;;;;;-1.70;50.07;100787.56;5113243;28;20030;-75
2021/03/21 02:11:39;;;;;;;14.38;7.53;;;;;;;-1.75;50.09;100788.41;5113506;28;20038;-74
2021/03/21 02:14:34;;;;;;;13.95;7.15;;;;;;;-1.73;49.59;100785.81;5113523;28;20036;-74
2021/03/21 02:17:12;;;;;;;11.35;7.00;;;;;;;-1.95;49.78;100758.81;5113539;28;20397;-75
2021/03/21 02:19:46;;;;;;;10.57;6.40;;;;;;;-1.82;50.28;100781.47;5113581;28;20063;-75
2021/03/21 02:22:21;;;;;;;11.18;6.25;;;;;;;-1.85;50.14;100771.00;5113269;28;20027;-75
2021/03/21 02:25:28;;;;;;;11.43;6.65;;;;;;;-1.87;49.71;100770.13;5113372;28;20032;-75
2021/03/21 02:28:18;;;;;;;12.70;6.53;;;;;;;-1.92;50.08;100764.06;5099742;28;20048;-74
2021/03/21 02:30:48;;;;;;;11.55;6.60;;;;;;;-1.99;50.95;100762.31;5113109;28;20432;-75
2021/03/21 02:33:26;;;;;;;13.40;7.05;;;;;;;-2.41;50.63;100688.31;5096447;28;20121;-83
2021/03/21 02:36:09;;;;;;;14.52;6.50;;;;;;;-1.95;49.84;100755.31;5099280;28;20108;-73
2021/03/21 02:38:47;;;;;;;10.65;6.93;;;;;;;-1.91;49.87;100750.09;5117165;28;20031;-74
2021/03/21 02:41:19;;;;;;;13.43;7.18;;;;;;;-2.05;50.24;100746.63;5117430;28;20040;-75
2021/03/21 02:43:59;;;;;;;13.85;6.93;;;;;;;-2.07;50.70;100743.13;5117200;28;20466;-75
2021/03/21 02:46:28;;;;;;;13.18;7.07;;;;;;;-2.19;50.63;100717.03;5117143;28;20031;-74
2021/03/21 02:49:16;;;;;;;14.52;6.72;;;;;;;-2.08;50.25;100731.81;5098776;28;20042;-74
2021/03/21 02:51:47;;;;;;;10.82;6.20;;;;;;;-2.04;50.98;100749.22;5116952;28;20049;-75
2021/03/21 02:54:27;;;;;;;14.27;7.22;;;;;;;-2.26;50.96;100707.44;5117292;28;20434;-75
2021/03/21 02:57:00;;;;;;;13.25;6.55;;;;;;;-2.22;51.14;100711.78;5117132;28;20085;-74
2021/03/21 02:59:30;;;;;;;13.05;7.22;;;;;;;-2.16;51.25;100717.00;5116839;28;20032;-74
2021/03/21 03:02:06;;;;;;;13.43;6.28;;;;;;;-2.14;50.09;100712.66;5117150;28;20027;-75
2021/03/21 03:04:36;;;;;;;14.38;6.90;;;;;;;-1.99;50.33;100741.41;5116847;28;20020;-75
2021/03/21 03:07:28;;;;;;;11.52;6.68;;;;;;;-2.08;49.85;100718.75;5116930;28;20386;-75
2021/03/21 03:09:57;;;;;;;11.75;6.43;;;;;;;-1.98;50.49;100737.91;5116587;28;20402;-74
2021/03/21 03:12:31;;;;;;;13.40;6.05;;;;;;;-2.12;49.89;100710.94;5116399;28;20027;-74
2021/03/21 03:14:57;;;;;;;11.45;6.57;;;;;;;-2.04;49.32;100701.31;5098159;28;20393;-74
2021/03/21 03:17:42;;;;;;;16.15;6.43;;;;;;;-1.92;49.80;100734.41;5116079;28;20134;-74
2021/03/21 03:20:35;;;;;;;11.73;6.35;;;;;;;-1.96;50.29;100733.53;5116897;28;20054;-75
2021/03/21 03:23:09;;;;;;;10.82;6.22;;;;;;;-2.00;50.16;100729.19;5116611;28;20129;-74
2021/03/21 03:25:50;;;;;;;14.48;6.47;;;;;;;-2.29;50.07;100681.31;5116111;28;20111;-74
2021/03/21 03:28:27;;;;;;;10.43;6.63;;;;;;;-2.08;49.99;100720.50;5116515;28;20478;-75
2021/03/21 03:31:09;;;;;;;10.57;6.47;;;;;;;-2.12;49.68;100716.16;5116309;28;20063;-75
2021/03/21 03:33:37;;;;;;;13.02;6.10;;;;;;;-2.16;49.72;100709.16;5097866;28;20055;-74
2021/03/21 03:36:08;;;;;;;11.18;6.15;;;;;;;-2.29;49.99;100692.66;5116118;28;20370;-74
2021/03/21 03:38:36;;;;;;;13.68;6.75;;;;;;;-2.30;49.99;100709.19;5116158;28;20067;-75
2021/03/21 03:41:08;;;;;;;14.73;6.53;;;;;;;-2.40;51.32;100708.31;5116044;28;20031;-74
2021/03/21 03:43:53;;;;;;;12.57;6.63;;;;;;;-2.36;50.74;100710.06;5097878;28;20182;-74
2021/03/21 03:46:55;;;;;;;13.45;6.90;;;;;;;-2.36;50.70;100710.06;5115822;28;20020;-74
2021/03/21 03:49:58;;;;;;;10.18;5.57;;;;;;;-2.39;50.57;100704.84;5115722;28;20024;-75
2021/03/21 03:52:32;;;;;;;14.57;6.93;;;;;;;-2.51;50.83;100675.22;5116025;28;20038;-75
2021/03/21 03:55:10;;;;;;;10.05;5.57;;;;;;;-2.44;50.82;100706.56;5116157;28;20038;-74
2021/03/21 03:57:45;;;;;;;11.75;6.18;;;;;;;-2.81;50.82;100643.00;5115833;28;20035;-75
2021/03/21 04:00:59;;;;;;;12.38;6.35;;;;;;;-2.41;50.65;100695.28;5115960;28;20385;-74
2021/03/21 04:03:49;;;;;;;14.00;6.60;;;;;;;-2.44;50.55;100685.66;5106462;28;20479;-75
2021/03/21 04:06:17;;;;;;;12.20;6.25;;;;;;;-2.51;50.74;100683.94;5115695;28;20031;-74
2021/03/21 04:08:46;;;;;;;13.52;6.90;;;;;;;-2.48;50.84;100683.94;5115340;28;20032;-74
2021/03/21 04:11:18;;;;;;;11.90;6.13;;;;;;;-2.79;50.36;100619.53;5115291;28;20106;-74
2021/03/21 04:13:57;;;;;;;13.13;6.32;;;;;;;-2.42;50.21;100677.81;5115348;28;20080;-74
2021/03/21 04:16:33;;;;;;;11.70;6.18;;;;;;;-2.75;49.87;100610.81;5115482;28;20386;-75
2021/03/21 04:19:05;;;;;;;10.77;5.72;;;;;;;-2.37;50.00;100676.97;5097495;28;20538;-74
2021/03/21 04:22:03;;;;;;;13.18;6.53;;;;;;;-2.33;50.02;100668.25;5115268;28;20077;-75
2021/03/21 04:25:01;;;;;;;12.55;6.38;;;;;;;-2.51;50.20;100665.66;5115066;28;20474;-75
2021/03/21 04:27:33;;;;;;;13.45;6.93;;;;;;;-2.54;50.59;100668.25;5108350;28;20047;-74
2021/03/21 04:30:11;;;;;;;10.25;5.65;;;;;;;-2.71;50.64;100639.53;5115082;28;20027;-75
2021/03/21 04:32:49;;;;;;;11.80;6.00;;;;;;;-2.50;50.63;100659.56;5114936;28;20049;-75
2021/03/21 04:35:28;;;;;;;12.48;6.20;;;;;;;-2.73;50.83;100645.63;5115162;28;20038;-74
2021/03/21 04:38:02;;;;;;;11.77;6.43;;;;;;;-2.92;51.50;100624.72;5114936;28;20034;-74
2021/03/21 04:40:30;;;;;;;11.30;5.88;;;;;;;-2.72;51.54;100648.22;5114960;28;20031;-74
2021/03/21 04:43:01;;;;;;;11.45;5.90;;;;;;;-2.90;51.33;100624.72;5097010;28;20077;-75
2021/03/21 04:45:33;;;;;;;10.57;5.88;;;;;;;-2.82;51.70;100627.34;5114921;28;20031;-75
2021/03/21 04:48:10;;;;;;;11.52;5.47;;;;;;;-2.76;51.77;100650.88;5096507;28;20115;-73
2021/03/21 04:50:36;;;;;;;11.07;6.00;;;;;;;-2.92;51.64;100621.25;5114530;28;20073;-74
2021/03/21 04:53:23;;;;;;;12.25;6.18;;;;;;;-2.75;51.93;100647.38;5114650;28;20420;-74
2021/03/21 04:55:56;;;;;;;12.60;5.95;;;;;;;-2.92;51.79;100610.81;5114169;28;20031;-74
2021/03/21 04:58:37;;;;;;;10.70;6.03;;;;;;;-2.76;51.52;100640.41;5114422;28;20046;-74
2021/03/21 05:01:18;;;;;;;13.07;5.85;;;;;;;-2.79;51.68;100648.25;5114389;28;20073;-73
2021/03/21 05:04:11;;;;;;;9.52;5.93;;;;;;;-2.73;51.93;100645.63;5114327;28;20035;-74
2021/03/21 05:06:40;;;;;;;10.15;5.30;;;;;;;-2.55;51.29;100648.25;5101847;28;20367;-74
2021/03/21 05:09:10;;;;;;;12.18;6.07;;;;;;;-2.70;51.34;100645.63;5114320;28;20036;-75
2021/03/21 05:11:41;;;;;;;10.05;5.63;;;;;;;-2.67;51.57;100650.88;5113952;28;20028;-76
2021/03/21 05:14:28;;;;;;;9.95;5.60;;;;;;;-2.65;51.33;100649.97;5114282;28;20032;-74
2021/03/21 05:17:03;;;;;;;12.40;6.05;;;;;;;-2.73;50.65;100622.13;5113938;28;20043;-74
2021/03/21 05:19:54;;;;;;;11.55;5.70;;;;;;;-2.60;51.03;100642.16;5114136;28;20031;-74
2021/03/21 05:22:22;;;;;;;12.82;5.40;;;;;;;-2.51;50.37;100639.53;5113992;28;20118;-74
2021/03/21 05:24:57;;;;;;;11.50;6.07;;;;;;;-2.69;50.27;100616.91;5113785;28;20469;-74
2021/03/21 05:27:40;;;;;;;10.52;5.50;;;;;;;-2.54;50.45;100642.13;5114682;28;20035;-74
2021/03/21 05:30:15;;;;;;;11.33;5.90;;;;;;;-2.53;50.32;100646.50;5095701;28;20024;-74
2021/03/21 05:32:42;;;;;;;9.90;5.35;;;;;;;-2.54;50.50;100651.72;5113656;28;20032;-74
2021/03/21 05:35:15;;;;;;;12.25;5.80;;;;;;;-2.51;50.44;100647.38;5114182;28;20031;-74
2021/03/21 05:37:53;;;;;;;9.90;6.00;;;;;;;-2.44;50.95;100649.09;5113928;28;20032;-74
2021/03/21 05:40:43;;;;;;;12.60;6.07;;;;;;;-2.40;50.64;100645.63;5114225;28;20435;-74
2021/03/21 05:43:46;;;;;;;11.48;6.43;;;;;;;-2.45;51.18;100644.75;5113733;28;20027;-74
2021/03/21 05:46:27;;;;;;;11.50;5.72;;;;;;;-2.44;50.36;100649.09;5113618;28;20031;-74
2021/03/21 05:49:16;;;;;;;11.85;6.05;;;;;;;-2.41;50.81;100649.13;5113661;28;20513;-74
2021/03/21 05:52:23;;;;;;;12.90;5.70;;;;;;;-2.28;49.87;100638.63;5113497;28;20427;-75
2021/03/21 05:55:33;;;;;;;12.40;6.30;;;;;;;-2.11;49.75;100660.38;5113319;28;20027;-74
2021/03/21 05:58:27;;;;;;;12.55;5.93;;;;;;;-1.97;48.71;100642.91;5113681;28;20031;-73
2021/03/21 06:01:02;;;;;;;16.00;6.35;;;;;;;-2.01;49.21;100630.72;5113468;28;20035;-73
2021/03/21 06:04:11;;;;;;;11.75;6.25;;;;;;;-1.91;49.38;100650.75;5113564;28;20355;-74
2021/03/21 06:07:11;;;;;;;12.55;6.30;;;;;;;-1.86;48.46;100641.13;5113293;28;20031;-76
2021/03/21 06:10:08;;;;;;;12.98;6.18;;;;;;;-1.73;48.39;100653.31;5113030;28;20028;-74
2021/03/21 06:13:01;;;;;;;12.25;6.50;;;;;;;-1.62;47.97;100657.63;5113316;28;20103;-75
2021/03/21 06:16:03;;;;;;;11.27;5.70;;;;;;;-1.59;47.73;100658.47;5113471;28;20425;-74
2021/03/21 06:19:00;;;;;;;12.23;6.50;;;;;;;-1.57;48.24;100653.22;5113290;28;20035;-74
2021/03/21 06:21:43;;;;;;;15.48;6.60;;;;;;;-1.56;48.71;100649.72;5113436;28;20067;-74
2021/03/21 06:24:32;;;;;;;13.00;6.63;;;;;;;-1.74;48.34;100628.03;5113366;28;20478;-74
2021/03/21 06:27:21;;;;;;;13.23;6.57;;;;;;;-1.40;47.73;100651.41;5113296;28;20081;-74
2021/03/21 06:30:17;;;;;;;12.43;6.82;;;;;;;-1.41;48.25;100641.81;5113045;28;20024;-74
2021/03/21 06:32:57;;;;;;;14.43;6.57;;;;;;;-1.53;47.98;100610.50;5113044;28;20028;-74
2021/03/21 06:35:25;;;;;;;12.82;6.00;;;;;;;-1.38;48.40;100633.06;5095039;28;20023;-74
2021/03/21 06:38:08;;;;;;;13.07;6.90;;;;;;;-1.55;47.77;100607.84;5112912;28;20252;-73
2021/03/21 06:41:02;;;;;;;13.20;6.35;;;;;;;-1.47;47.71;100611.31;5112897;28;20106;-74
2021/03/21 06:44:03;;;;;;;10.23;6.07;;;;;;;-1.19;47.14;100629.47;5113291;28;20430;-75
2021/03/21 06:46:38;;;;;;;13.13;6.32;;;;;;;-1.10;46.44;100600.59;5113118;28;20038;-75
2021/03/21 06:49:26;;;;;;;11.93;6.10;;;;;;;-0.75;45.74;100623.06;5113365;28;20030;-74
2021/03/21 06:51:52;;;;;;;14.23;6.05;;;;;;;-0.76;45.70;100631.78;5112671;28;20028;-75
2021/03/21 06:54:46;;;;;;;13.20;6.35;;;;;;;-0.75;46.55;100636.16;5094741;28;20032;-74
2021/03/21 06:57:49;;;;;;;13.25;6.35;;;;;;;-0.90;46.32;100634.50;5113086;28;20088;-73
2021/03/21 07:00:32;;;;;;;12.20;6.15;;;;;;;-0.60;46.18;100626.38;5112675;28;20030;-74
2021/03/21 07:03:16;;;;;;;11.85;6.10;;;;;;;-0.66;47.02;100621.22;5113012;28;20478;-75
2021/03/21 07:06:13;;;;;;;11.35;5.97;;;;;;;-0.55;46.31;100622.88;5112342;28;20027;-73
2021/03/21 07:09:06;;;;;;;12.32;5.68;;;;;;;-0.49;45.56;100618.44;5112423;28;20054;-73
2021/03/21 07:11:37;;;;;;;12.40;5.43;;;;;;;-0.57;44.35;100624.66;5112582;28;20072;-75
2021/03/21 07:14:23;;;;;;;7.43;4.13;;;;;;;-0.71;45.38;100619.50;5112736;28;20115;-74
2021/03/21 07:17:21;;;;;;;9.10;3.58;;;;;;;-0.75;45.17;100618.69;5111516;28;20134;-75
2021/03/21 07:20:10;;;;;;;9.88;5.50;;;;;;;-0.66;45.04;100618.59;5057171;28;20113;-74
2021/03/21 07:23:17;;;;;;;12.48;6.05;;;;;;;-0.66;44.45;100595.03;5116325;28;20061;-76
2021/03/21 07:25:46;;;;;;;11.07;5.47;;;;;;;-0.38;43.90;100613.13;5105869;28;20031;-74
2021/03/21 07:28:32;;;;;;;13.40;6.07;;;;;;;-0.46;45.09;100609.69;5116264;28;20462;-73
2021/03/21 07:31:25;;;;;;;10.70;6.13;;;;;;;-0.57;45.58;100586.22;5115919;28;20367;-74
2021/03/21 07:34:12;;;;;;;10.65;6.03;;;;;;;-0.26;45.07;100615.59;5115322;28;20044;-74
2021/03/21 07:36:46;;;;;;;13.40;6.00;;;;;;;-0.19;44.55;100617.28;5115907;28;20039;-75
2021/03/21 07:39:28;;;;;;;10.35;5.03;;;;;;;-0.23;44.58;100612.06;5116331;28;20484;-74
2021/03/21 07:42:04;;;;;;;11.27;5.35;;;;;;;-0.11;44.69;100602.31;5115732;28;20031;-73
2021/03/21 07:44:46;;;;;;;8.02;4.53;;;;;;;-0.10;43.13;100604.03;5116090;28;20034;-73
2021/03/21 07:47:26;;;;;;;9.85;5.32;;;;;;;-0.02;42.71;100602.22;5116162;28;20429;-74
2021/03/21 07:50:33;;;;;;;10.18;4.72;;;;;;;0.03;41.98;100599.53;5097438;28;20052;-75
2021/03/21 07:53:27;;;;;;;10.95;5.30;;;;;;;0.04;42.10;100577.69;5115589;28;20439;-74
2021/03/21 07:56:21;;;;;;;6.50;3.78;;;;;;;0.13;41.25;100584.56;5067822;28;20051;-75
2021/03/21 07:59:00;;;;;;;9.25;4.47;;;;;;;-0.35;41.53;100516.09;5111184;28;20062;-73
2021/03/21 08:01:26;;;;;;;8.35;5.20;;;;;;;0.18;42.49;100593.22;5115838;28;20032;-74
2021/03/21 08:04:12;;;;;;;9.93;4.60;;;;;;;0.10;43.10;100553.13;5097148;28;20062;-74
2021/03/21 08:06:42;;;;;;;7.50;4.07;;;;;;;0.39;43.35;100589.50;5115437;28;20390;-74
2021/03/21 08:09:18;;;;;;;9.68;4.43;;;;;;;0.25;41.36;100563.41;5115166;28;20023;-74
2021/03/21 08:12:24;;;;;;;5.80;3.22;;;;;;;0.16;42.68;100571.41;5115122;28;20027;-75
2021/03/21 08:15:22;;;;;;;4.07;2.22;;;;;;;0.30;42.01;100561.63;5115632;28;20027;-75
2021/03/21 08:17:53;;;;;;;8.30;4.72;;;;;;;0.22;41.00;100560.84;5105773;28;20112;-75
2021/03/21 08:20:18;;;;;;;5.22;3.10;;;;;;;0.37;40.52;100549.25;5115352;28;20038;-75
2021/03/21 08:22:44;;;;;;;6.78;3.20;;;;;;;0.16;41.11;100521.56;5115077;28;20119;-76
2021/03/21 08:25:25;;;;;;;8.23;4.45;;;;;;;0.44;40.37;100525.53;5079921;28;20044;-74
2021/03/21 08:27:53;;;;;;;8.07;4.40;;;;;;;0.53;39.47;100525.41;5096571;28;20031;-74
2021/03/21 08:30:21;;;;;;;7.35;3.53;;;;;;;0.61;40.10;100546.28;5115005;28;20037;-74
2021/03/21 08:32:59;;;;;;;9.48;4.07;;;;;;;0.60;39.73;100548.94;5114899;28;20119;-75
2021/03/21 08:35:30;;;;;;;8.18;4.45;;;;;;;0.72;40.03;100533.88;5114948;28;20106;-75
2021/03/21 08:38:00;;;;;;;9.65;3.97;;;;;;;0.65;38.37;100529.59;5114688;28;20036;-76
2021/03/21 08:40:36;;;;;;;7.85;4.00;;;;;;;0.57;36.88;100510.47;5114865;28;20118;-74
2021/03/21 08:43:10;;;;;;;8.45;3.53;;;;;;;0.74;37.06;100531.22;5114493;28;20084;-74
2021/03/21 08:45:40;;;;;;;5.38;2.90;;;;;;;0.85;37.98;100524.03;5114483;28;20440;-73
2021/03/21 08:48:13;;;;;;;3.65;2.30;;;;;;;0.61;37.65;100524.44;5114511;28;20110;-74
2021/03/21 08:50:40;;;;;;;7.85;4.35;;;;;;;0.69;38.16;100533.06;5114597;28;20034;-74
2021/03/21 08:53:41;;;;;;;7.50;3.88;;;;;;;0.37;38.80;100505.50;5114435;28;20028;-74
2021/03/21 08:56:10;;;;;;;3.90;2.20;;;;;;;0.63;36.78;100518.25;5114095;28;20127;-74
2021/03/21 08:58:36;;;;;;;7.50;3.40;;;;;;;0.79;36.68;100514.50;5114596;28;20102;-74
2021/03/21 09:01:14;;;;;;;7.50;3.53;;;;;;;0.83;36.37;100515.31;5114346;28;20165;-76
2021/03/21 09:03:41;;;;;;;8.30;3.60;;;;;;;1.04;36.29;100525.44;5114428;28;20027;-74
2021/03/21 09:06:07;;;;;;;7.80;3.80;;;;;;;0.94;36.02;100510.75;5114271;28;20035;-75
2021/03/21 09:08:34;;;;;;;7.97;3.10;;;;;;;0.93;36.48;100501.13;5114576;28;20032;-75
2021/03/21 09:11:03;;;;;;;6.88;3.92;;;;;;;0.96;36.67;100494.94;5095757;28;20034;-75
2021/03/21 09:13:32;;;;;;;7.15;3.85;;;;;;;1.05;35.28;100490.41;5114035;28;20118;-75
2021/03/21 09:15:57;;;;;;;6.85;3.75;;;;;;;1.09;35.28;100499.13;5114296;28;20036;-74
2021/03/21 09:18:29;;;;;;;6.97;3.72;;;;;;;0.88;35.69;100487.22;5114197;28;20050;-75
2021/03/21 09:21:04;;;;;;;6.68;3.40;;;;;;;1.04;36.50;100483.41;5114195;28;20081;-75
2021/03/21 09:23:36;;;;;;;7.25;3.75;;;;;;;1.07;36.05;100467.63;5114186;28;20032;-75
2021/03/21 09:26:04;;;;;;;6.05;2.42;;;;;;;1.22;35.79;100482.22;5113688;28;20114;-76
2021/03/21 09:28:35;;;;;;;8.18;3.85;;;;;;;1.19;35.26;100470.91;5114013;28;20028;-73
2021/03/21 09:31:19;;;;;;;6.80;3.75;;;;;;;1.29;35.85;100440.94;5113812;28;20028;-75
2021/03/21 09:34:23;;;;;;;6.53;3.70;;;;;;;1.26;35.23;100456.78;5114376;28;20028;-74
2021/03/21 09:36:59;;;;;;;7.90;3.90;;;;;;;1.28;35.32;100428.72;5113394;28;20036;-76
2021/03/21 09:39:30;;;;;;;7.35;4.07;;;;;;;1.55;36.08;100420.28;5114118;28;20035;-75
2021/03/21 09:41:57;;;;;;;8.10;4.45;;;;;;;1.65;35.59;100445.47;5113265;28;20147;-76
2021/03/21 09:44:28;;;;;;;7.82;4.03;;;;;;;1.66;36.33;100435.81;5095488;28;20035;-75
2021/03/21 09:47:00;;;;;;;9.23;4.45;;;;;;;1.55;35.65;100443.94;5113406;28;20034;-75
2021/03/21 09:49:42;;;;;;;7.00;3.92;;;;;;;1.50;36.18;100429.13;5113575;28;20114;-74
2021/03/21 09:52:17;;;;;;;6.95;4.07;;;;;;;1.66;36.16;100441.09;5113365;28;20035;-75
2021/03/21 09:55:20;;;;;;;7.07;3.63;;;;;;;1.75;35.23;100434.75;5113684;28;20050;-75
2021/03/21 09:58:09;;;;;;;7.90;4.20;;;;;;;1.83;36.52;100433.69;5083214;28;20518;-74
2021/03/21 10:00:38;;;;;;;6.10;4.00;;;;;;;1.76;35.71;100437.34;5113690;28;20027;-75
2021/03/21 10:03:21;;;;;;;7.95;4.10;;;;;;;1.77;35.26;100422.44;5112986;28;20110;-74
2021/03/21 10:06:05;;;;;;;6.60;3.83;;;;;;;1.80;35.57;100417.09;5113436;28;20028;-76
2021/03/21 10:09:08;;;;;;;8.70;3.97;;;;;;;1.89;35.58;100414.28;5113608;28;20024;-75
2021/03/21 10:11:38;;;;;;;7.70;3.95;;;;;;;2.06;36.05;100414.78;5113089;28;20424;-74
2021/03/21 10:14:21;;;;;;;7.70;4.40;;;;;;;2.18;35.26;100403.94;5113102;28;20067;-75
2021/03/21 10:16:48;;;;;;;7.32;4.05;;;;;;;1.91;35.26;100373.00;5113367;28;20375;-75
2021/03/21 10:19:39;;;;;;;7.13;3.97;;;;;;;2.11;35.53;100391.81;5095370;28;20035;-75
2021/03/21 10:22:28;;;;;;;7.80;3.90;;;;;;;2.23;34.38;100386.31;5113133;28;20032;-75
2021/03/21 10:24:59;;;;;;;7.25;3.72;;;;;;;2.23;33.49;100378.41;5065575;28;20476;-74
2021/03/21 10:27:34;;;;;;;8.73;4.18;;;;;;;2.54;34.02;100369.75;5113452;28;20033;-75
2021/03/21 10:30:28;;;;;;;7.03;3.50;;;;;;;2.21;33.08;100311.75;5112949;28;20032;-74
2021/03/21 10:32:59;;;;;;;5.80;3.72;;;;;;;2.56;33.10;100362.66;5094773;28;20038;-75
2021/03/21 10:35:25;;;;;;;5.95;3.20;;;;;;;2.70;32.94;100334.22;5113390;28;20030;-75
2021/03/21 10:37:57;;;;;;;5.57;3.05;;;;;;;2.81;31.81;100350.59;5113228;28;20382;-75
2021/03/21 10:40:25;;;;;;;5.45;2.95;;;;;;;2.92;32.34;100352.94;5112959;28;20036;-74
2021/03/21 10:43:02;;;;;;;8.38;3.85;;;;;;;2.99;32.23;100337.78;5113116;28;20032;-74
2021/03/21 10:45:33;;;;;;;5.25;2.90;;;;;;;3.33;32.80;100346.50;5113681;28;20085;-73
2021/03/21 10:48:19;;;;;;;6.43;3.25;;;;;;;2.88;32.43;100311.75;5112841;28;20027;-75
2021/03/21 10:50:58;;;;;;;5.10;2.72;;;;;;;3.17;31.45;100339.91;5094941;28;20111;-74
2021/03/21 10:53:39;;;;;;;5.38;3.38;;;;;;;3.23;31.23;100320.44;5112957;28;20028;-75
2021/03/21 10:56:16;;;;;;;7.28;3.45;;;;;;;3.41;32.15;100323.41;5115958;28;20070;-75
2021/03/21 10:59:09;;;;;;;4.68;3.05;;;;;;;3.56;30.77;100323.84;5117148;28;20065;-75
2021/03/21 11:01:40;;;;;;;4.33;2.63;;;;;;;3.34;30.51;100282.28;5117025;28;20034;-75
2021/03/21 11:04:21;;;;;;;5.68;2.60;;;;;;;3.16;30.70;100311.84;5116449;28;20038;-75
2021/03/21 11:06:56;;;;;;;5.05;3.03;;;;;;;2.94;30.29;100279.09;5116916;28;20047;-74
2021/03/21 11:09:32;;;;;;;4.93;2.50;;;;;;;3.29;31.44;100284.22;5117164;28;20028;-75
2021/03/21 11:11:59;;;;;;;4.25;2.53;;;;;;;3.22;29.78;100273.91;5116383;28;20042;-74
2021/03/21 11:14:24;;;;;;;3.53;2.08;;;;;;;3.30;29.79;100293.84;5116568;28;20079;-75
2021/03/21 11:16:54;;;;;;;6.07;3.20;;;;;;;3.33;30.14;100291.13;5116555;28;20054;-75
2021/03/21 11:19:23;;;;;;;5.13;3.03;;;;;;;3.41;30.18;100290.91;5116714;28;20065;-74
2021/03/21 11:21:49;;;;;;;4.97;3.00;;;;;;;3.15;30.05;100262.66;5098231;28;20035;-75
2021/03/21 11:24:26;;;;;;;5.38;2.90;;;;;;;3.48;30.82;100276.63;5116349;28;20100;-75
2021/03/21 11:26:52;;;;;;;5.90;3.10;;;;;;;3.50;30.28;100255.47;5116363;28;20484;-75
2021/03/21 11:29:44;;;;;;;6.97;3.10;;;;;;;3.63;30.12;100264.72;5098510;28;20096;-74
2021/03/21 11:32:22;;;;;;;7.00;3.45;;;;;;;3.70;30.03;100260.97;5115376;28;20059;-74
2021/03/21 11:35:25;;;;;;;7.65;4.47;;;;;;;3.59;29.50;100265.72;5116422;28;20035;-74
2021/03/21 11:37:55;;;;;;;7.22;4.40;;;;;;;3.29;29.97;100223.59;5063440;28;20046;-76
2021/03/21 11:40:22;;;;;;;5.82;3.72;;;;;;;3.44;29.67;100244.19;5115885;28;20044;-75
2021/03/21 11:43:09;;;;;;;3.72;2.28;;;;;;;3.50;29.82;100200.94;5116330;28;20049;-75
2021/03/21 11:45:38;;;;;;;7.50;3.35;;;;;;;3.35;28.68;100239.19;5101508;28;20490;-75
2021/03/21 11:48:09;;;;;;;5.85;2.95;;;;;;;3.42;28.96;100229.34;5115656;28;20378;-75
2021/03/21 11:50:37;;;;;;;8.18;3.20;;;;;;;3.43;28.98;100208.19;5115983;28;20031;-75
2021/03/21 11:53:06;;;;;;;6.72;3.13;;;;;;;3.50;28.98;100214.13;5115717;28;20032;-75
2021/03/21 11:55:42;;;;;;;3.92;2.28;;;;;;;3.60;27.87;100196.25;5116118;28;20028;-75
2021/03/21 11:58:17;;;;;;;5.15;2.08;;;;;;;3.59;27.29;100215.63;5115545;28;20043;-73
2021/03/21 12:00:53;;;;;;;5.38;2.78;;;;;;;3.57;27.47;100201.59;5116045;28;20414;-75
2021/03/21 12:03:23;;;;;;;6.28;3.08;;;;;;;3.80;27.13;100193.81;5115796;28;20106;-75
2021/03/21 12:06:21;;;;;;;7.80;3.50;;;;;;;3.78;27.76;100177.19;5115106;28;20378;-75
2021/03/21 12:08:47;;;;;;;5.50;3.40;;;;;;;3.82;27.60;100183.19;5115657;28;20032;-75
2021/03/21 12:11:24;;;;;;;4.38;2.13;;;;;;;4.00;27.54;100170.25;5115283;28;20133;-74